Time;durP1;ratioP1;P1;durP2;ratioP2;P2;SDS_P1;SDS_P2;PMS_P1;PMS_P2;Temp;Humidity;BMP_temperature;BMP_pressure;BME280_temperature;BME280_humidity;BME280_pressure;Samples;Min_cycle;Max_cycle;Signal;HPM_P1;HPM_P2
2021/10/17 00:01:28;;;;;;;;;8.75;8.50;;;;;21.45;42.13;101624.19;5013931;28;51232;-57
2021/10/17 00:03:53;;;;;;;;;7.00;6.00;;;;;21.44;41.76;101617.81;5005903;28;51211;-56
2021/10/17 00:06:19;;;;;;;;;9.50;9.00;;;;;21.44;42.03;101616.97;5002550;28;51077;-56
2021/10/17 00:08:45;;;;;;;;;8.50;7.50;;;;;21.44;42.12;101611.47;5003259;28;51764;-56
2021/10/17 00:11:10;;;;;;;;;11.00;9.25;;;;;21.42;41.68;101614.44;4999180;28;51662;-55
2021/10/17 00:13:35;;;;;;;;;8.75;7.25;;;;;21.42;41.74;101619.09;5003346;28;51160;-56
2021/10/17 00:16:01;;;;;;;;;9.75;7.25;;;;;21.42;42.15;101605.31;4995946;28;51168;-56
2021/10/17 00:18:26;;;;;;;;;8.75;7.00;;;;;21.42;41.73;101610.81;4997730;28;51733;-55
2021/10/17 00:20:52;;;;;;;;;8.00;6.75;;;;;21.41;42.16;101611.88;4996027;28;51098;-54
2021/10/17 00:23:18;;;;;;;;;11.25;6.00;;;;;21.41;42.14;101609.97;5009742;28;51082;-55
2021/10/17 00:25:43;;;;;;;;;7.75;7.00;;;;;21.40;42.13;101605.53;5015614;28;51399;-56
2021/10/17 00:28:08;;;;;;;;;9.25;7.25;;;;;21.40;42.21;101608.28;5000116;28;51815;-55
2021/10/17 00:30:34;;;;;;;;;10.50;7.25;;;;;21.39;41.77;101608.50;5004470;28;51095;-56
2021/10/17 00:32:59;;;;;;;;;7.00;6.25;;;;;21.38;42.16;101609.56;4999504;28;51054;-55
2021/10/17 00:35:25;;;;;;;;;6.75;6.25;;;;;21.38;41.85;101606.81;5013291;28;51068;-55
2021/10/17 00:37:50;;;;;;;;;8.00;8.00;;;;;21.36;42.01;101609.75;5011586;28;51246;-55
2021/10/17 00:40:19;;;;;;;;;8.25;7.50;;;;;21.37;41.65;101608.72;5014759;28;51322;-55
2021/10/17 00:42:47;;;;;;;;;9.00;6.75;;;;;21.36;42.17;101617.16;5003059;28;51187;-55
2021/10/17 00:45:18;;;;;;;;;5.00;5.00;;;;;21.36;42.34;101608.91;5014794;28;51103;-54
2021/10/17 00:47:44;;;;;;;;;5.25;4.75;;;;;21.34;42.19;101622.88;5007349;28;51173;-54
2021/10/17 00:50:10;;;;;;;;;6.75;5.75;;;;;21.35;42.25;101626.50;4999640;28;51157;-53
2021/10/17 00:52:38;;;;;;;;;8.75;8.75;;;;;21.33;42.37;101622.03;4995461;28;51371;-55
2021/10/17 00:55:05;;;;;;;;;9.00;5.50;;;;;21.33;42.37;101612.94;4998217;28;51305;-52
2021/10/17 00:57:34;;;;;;;;;5.75;5.00;;;;;21.33;42.30;101615.69;5014186;28;51065;-54
2021/10/17 01:00:00;;;;;;;;;8.75;7.00;;;;;21.32;41.91;101619.50;5014135;28;51368;-53
2021/10/17 01:02:25;;;;;;;;;9.00;7.25;;;;;21.31;41.81;101610.38;5004725;28;51641;-51
2021/10/17 01:04:51;;;;;;;;;8.00;6.00;;;;;21.30;42.05;101607.84;4999735;28;51051;-53
2021/10/17 01:07:16;;;;;;;;;8.25;7.25;;;;;21.30;42.25;101594.06;4999262;28;51864;-56
2021/10/17 01:09:42;;;;;;;;;8.50;6.00;;;;;21.29;42.13;101592.38;5012312;28;51334;-52
2021/10/17 01:12:08;;;;;;;;;9.75;5.75;;;;;21.29;41.94;101604.25;5006156;28;51070;-54
2021/10/17 01:14:33;;;;;;;;;6.00;6.00;;;;;21.28;42.17;101597.03;5007219;28;51197;-55
2021/10/17 01:16:59;;;;;;;;;5.00;5.00;;;;;21.27;42.01;101598.09;5007711;28;51271;-54
2021/10/17 01:19:25;;;;;;;;;8.00;7.00;;;;;21.27;41.91;101600.00;4996169;28;51643;-53
2021/10/17 01:21:50;;;;;;;;;6.00;5.00;;;;;21.26;41.76;101601.91;4995675;28;51120;-53
2021/10/17 01:24:20;;;;;;;;;7.25;6.00;;;;;21.26;42.43;101593.66;5004745;28;51211;-54
2021/10/17 01:26:46;;;;;;;;;6.50;6.50;;;;;21.26;41.94;101593.66;5009475;28;51280;-56
2021/10/17 01:29:12;;;;;;;;;7.50;6.25;;;;;21.25;42.20;101591.88;5014728;28;51151;-55
2021/10/17 01:31:51;;;;;;;;;5.50;4.00;;;;;21.25;42.32;101596.56;5014162;28;51142;-55
2021/10/17 01:34:18;;;;;;;;;6.75;6.75;;;;;21.25;41.95;101586.38;5000335;28;51391;-57
2021/10/17 01:36:43;;;;;;;;;5.00;5.00;;;;;21.24;41.92;101584.69;5011365;28;51335;-56
2021/10/17 01:39:12;;;;;;;;;7.50;6.75;;;;;21.24;42.33;101590.19;5005239;28;50988;-57
2021/10/17 01:41:38;;;;;;;;;7.50;6.25;;;;;21.24;42.30;101589.34;4977856;28;51169;-56
2021/10/17 01:44:06;;;;;;;;;8.25;7.75;;;;;21.23;42.32;101594.00;5010031;28;51164;-57
2021/10/17 01:46:32;;;;;;;;;7.00;5.75;;;;;21.23;41.99;101596.75;5011936;28;51197;-56
2021/10/17 01:48:57;;;;;;;;;8.75;6.00;;;;;21.23;42.18;101587.66;5005064;28;51082;-57
2021/10/17 01:51:22;;;;;;;;;6.50;5.25;;;;;21.22;42.38;101594.22;5007402;28;51108;-54
2021/10/17 01:53:48;;;;;;;;;6.00;6.00;;;;;21.23;41.97;101594.00;4994602;28;51115;-55
2021/10/17 01:56:13;;;;;;;;;5.50;4.25;;;;;21.22;42.31;101591.47;5010402;28;51974;-55
2021/10/17 01:58:39;;;;;;;;;8.00;6.25;;;;;21.21;42.22;101590.63;4994789;28;51221;-56
2021/10/17 02:01:05;;;;;;;;;9.00;6.25;;;;;21.21;42.31;101589.78;4996319;28;51386;-56
2021/10/17 02:03:31;;;;;;;;;5.75;5.75;;;;;21.21;41.81;101596.13;4997523;28;51061;-56
2021/10/17 02:05:56;;;;;;;;;6.75;6.75;;;;;21.22;42.35;101599.72;5010361;28;51051;-56
2021/10/17 02:08:22;;;;;;;;;7.00;6.25;;;;;21.21;42.23;101592.53;5012336;28;51159;-55
2021/10/17 02:10:47;;;;;;;;;6.25;6.25;;;;;21.20;42.35;101588.94;4998113;28;51465;-53
2021/10/17 02:13:13;;;;;;;;;8.00;6.75;;;;;21.21;42.36;101595.28;5015182;28;51345;-53
2021/10/17 02:15:39;;;;;;;;;5.00;5.00;;;;;21.20;42.07;101588.94;4987083;28;51236;-53
2021/10/17 02:18:04;;;;;;;;;8.00;5.75;;;;;21.20;42.03;101596.34;5012693;28;51220;-55
2021/10/17 02:20:32;;;;;;;;;7.00;5.25;;;;;21.19;41.86;101581.72;5008216;28;51055;-52
2021/10/17 02:22:59;;;;;;;;;6.00;6.00;;;;;21.19;41.91;101586.38;5014325;28;51329;-53
2021/10/17 02:25:24;;;;;;;;;4.25;4.25;;;;;21.18;41.81;101577.28;5015501;28;52001;-53
2021/10/17 02:27:49;;;;;;;;;6.75;6.00;;;;;21.17;42.06;101591.25;5000911;28;50948;-54
2021/10/17 02:30:15;;;;;;;;;9.00;7.75;;;;;21.16;41.93;101584.91;5002109;28;51075;-54
2021/10/17 02:32:41;;;;;;;;;6.50;6.00;;;;;21.16;41.93;101582.16;4998277;28;51310;-52
2021/10/17 02:35:07;;;;;;;;;6.50;6.50;;;;;21.16;42.23;101579.41;4998880;28;51111;-54
2021/10/17 02:37:32;;;;;;;;;8.75;6.25;;;;;21.15;42.01;101588.69;4997956;28;51443;-51
2021/10/17 02:39:58;;;;;;;;;5.25;4.50;;;;;21.15;42.27;101591.44;4997823;28;51585;-52
2021/10/17 02:42:23;;;;;;;;;5.00;5.00;;;;;21.15;42.33;101585.09;4998498;28;51087;-54
2021/10/17 02:44:49;;;;;;;;;7.00;7.00;;;;;21.14;42.32;101580.63;4998913;28;52126;-52
2021/10/17 02:47:14;;;;;;;;;7.00;5.00;;;;;21.12;42.32;101583.59;5016643;28;51105;-54
2021/10/17 02:49:39;;;;;;;;;5.25;5.25;;;;;21.12;41.89;101580.00;5017222;28;51263;-55
2021/10/17 02:52:05;;;;;;;;;5.00;5.00;;;;;21.13;41.93;101570.69;5016942;28;51168;-54
2021/10/17 02:54:30;;;;;;;;;6.25;5.25;;;;;21.11;42.01;101576.41;5013613;28;52354;-53
2021/10/17 02:56:56;;;;;;;;;6.75;6.75;;;;;21.10;42.02;101574.72;5008168;28;50970;-54
2021/10/17 02:59:21;;;;;;;;;5.75;5.75;;;;;21.10;42.10;101569.19;5009180;28;51124;-54
2021/10/17 03:01:46;;;;;;;;;7.00;7.00;;;;;21.10;42.00;101566.44;5015283;28;51083;-55
2021/10/17 03:04:12;;;;;;;;;6.00;6.00;;;;;21.09;41.74;101564.75;5016865;28;51785;-53
2021/10/17 03:06:38;;;;;;;;;6.50;5.75;;;;;21.11;42.37;101562.63;5006152;28;51392;-54
2021/10/17 03:09:03;;;;;;;;;6.50;5.25;;;;;21.09;41.99;101564.75;4997571;28;51163;-54
2021/10/17 03:11:28;;;;;;;;;6.75;6.00;;;;;21.10;42.25;101576.63;4999637;28;51272;-52
2021/10/17 03:13:54;;;;;;;;;8.75;8.00;;;;;21.10;42.13;101571.94;5009483;28;51111;-51
2021/10/17 03:16:19;;;;;;;;;7.00;5.75;;;;;21.09;42.03;101575.75;4996714;28;51040;-53
2021/10/17 03:18:44;;;;;;;;;6.25;5.00;;;;;21.08;41.98;101574.06;5005538;28;51233;-53
2021/10/17 03:21:10;;;;;;;;;5.00;5.00;;;;;21.08;42.00;101576.81;5015691;28;51178;-53
2021/10/17 03:23:35;;;;;;;;;7.25;6.25;;;;;21.09;42.06;101573.00;5007514;28;51073;-55
2021/10/17 03:26:00;;;;;;;;;6.00;6.00;;;;;21.08;42.33;101567.72;5010043;28;51062;-52
2021/10/17 03:28:26;;;;;;;;;7.50;7.00;;;;;21.08;42.11;101570.47;5011305;28;51194;-52
2021/10/17 03:30:52;;;;;;;;;6.75;6.00;;;;;21.06;42.28;101570.69;5015656;28;51176;-52
2021/10/17 03:33:17;;;;;;;;;8.00;6.25;;;;;21.06;42.01;101565.19;5015849;28;51609;-52
2021/10/17 03:35:43;;;;;;;;;5.00;5.00;;;;;21.06;42.35;101573.44;5016662;28;51027;-52
2021/10/17 03:38:09;;;;;;;;;5.25;5.25;;;;;21.06;42.46;101559.66;5016261;28;51228;-52
2021/10/17 03:40:34;;;;;;;;;5.50;5.00;;;;;21.04;42.57;101557.09;5010771;28;51086;-52
2021/10/17 03:43:00;;;;;;;;;8.25;6.00;;;;;21.04;42.06;101546.06;4997467;28;51035;-51
2021/10/17 03:45:25;;;;;;;;;6.50;4.75;;;;;21.04;42.13;101548.81;4997216;28;50961;-51
2021/10/17 03:47:51;;;;;;;;;5.00;3.25;;;;;21.06;42.32;101550.56;5001658;28;51865;-54
2021/10/17 03:50:16;;;;;;;;;7.00;7.00;;;;;21.04;42.52;101546.06;4998524;28;51100;-56
2021/10/17 03:52:41;;;;;;;;;7.75;7.00;;;;;21.04;42.07;101547.97;4999742;28;51204;-52
2021/10/17 03:55:07;;;;;;;;;6.75;6.75;;;;;21.04;42.56;101545.22;5014121;28;50941;-55
2021/10/17 03:57:32;;;;;;;;;7.00;7.00;;;;;21.02;42.44;101545.44;5000214;28;51202;-56
2021/10/17 03:59:58;;;;;;;;;5.00;5.00;;;;;21.03;42.46;101552.66;4998446;28;51127;-55
2021/10/17 04:02:23;;;;;;;;;6.25;6.25;;;;;21.03;42.45;101551.81;5014019;28;51836;-55
2021/10/17 04:04:48;;;;;;;;;5.00;4.50;;;;;21.02;42.57;101552.84;5016060;28;51118;-54
2021/10/17 04:07:14;;;;;;;;;8.50;4.75;;;;;21.02;42.13;101547.34;5015397;28;51134;-52
2021/10/17 04:09:39;;;;;;;;;6.00;5.50;;;;;21.01;42.11;101559.44;4998064;28;51727;-55
2021/10/17 04:12:05;;;;;;;;;6.75;5.00;;;;;21.01;42.17;101548.41;4999878;28;50937;-54
2021/10/17 04:14:30;;;;;;;;;7.50;6.00;;;;;21.01;42.28;101546.50;5001377;28;51171;-54
2021/10/17 04:16:55;;;;;;;;;5.50;5.50;;;;;21.00;42.37;101543.97;5006216;28;51101;-56
2021/10/17 04:19:21;;;;;;;;;6.25;5.75;;;;;21.00;42.48;101550.31;5004343;28;51038;-52
2021/10/17 04:21:46;;;;;;;;;6.25;6.00;;;;;20.99;42.32;101543.13;4996648;28;51824;-54
2021/10/17 04:24:12;;;;;;;;;7.00;7.00;;;;;21.00;42.48;101547.56;5001795;28;51237;-54
2021/10/17 04:26:37;;;;;;;;;7.25;6.75;;;;;21.00;42.40;101546.72;5014232;28;51823;-49
2021/10/17 04:29:03;;;;;;;;;5.25;5.25;;;;;21.00;42.32;101543.97;5004171;28;51093;-54
2021/10/17 04:31:28;;;;;;;;;6.25;6.00;;;;;21.00;42.59;101538.44;5001534;28;51859;-51
2021/10/17 04:33:53;;;;;;;;;5.00;5.00;;;;;21.01;42.39;101542.91;5009853;28;51149;-53
2021/10/17 04:36:19;;;;;;;;;9.75;8.00;;;;;21.00;42.30;101546.72;4996817;28;51226;-54
2021/10/17 04:38:44;;;;;;;;;5.75;5.25;;;;;21.00;42.19;101549.47;4997521;28;51200;-53
2021/10/17 04:41:13;;;;;;;;;6.25;5.00;;;;;20.99;42.27;101548.63;4996284;28;51118;-54
2021/10/17 04:43:38;;;;;;;;;5.00;5.00;;;;;20.98;42.59;101541.41;5009705;28;51001;-53
2021/10/17 04:46:03;;;;;;;;;6.00;5.25;;;;;20.99;42.17;101542.28;4997758;28;51147;-53
2021/10/17 04:48:29;;;;;;;;;7.00;5.50;;;;;20.97;42.60;101534.22;4997962;28;51142;-54
2021/10/17 04:50:54;;;;;;;;;7.25;5.00;;;;;20.97;42.49;101548.00;4995956;28;51177;-53
2021/10/17 04:53:19;;;;;;;;;8.25;6.75;;;;;20.96;42.47;101543.53;5004623;28;51101;-54
2021/10/17 04:55:45;;;;;;;;;7.50;5.50;;;;;20.95;42.55;101546.50;4996209;28;51289;-56
2021/10/17 04:58:10;;;;;;;;;8.50;7.50;;;;;20.95;42.28;101546.50;5008779;28;51161;-56
2021/10/17 05:00:36;;;;;;;;;8.00;6.00;;;;;20.94;42.09;101551.13;5009148;28;51176;-56
2021/10/17 05:03:01;;;;;;;;;4.00;4.00;;;;;20.94;42.42;101551.13;5013819;28;51229;-56
2021/10/17 05:05:27;;;;;;;;;7.00;4.00;;;;;20.93;42.21;101557.72;5012553;28;51256;-53
2021/10/17 05:07:52;;;;;;;;;6.75;6.75;;;;;20.93;42.12;101554.09;5009721;28;51132;-54
2021/10/17 05:10:18;;;;;;;;;7.00;5.00;;;;;20.92;42.80;101547.75;5014671;28;51073;-52
2021/10/17 05:12:43;;;;;;;;;5.75;5.75;;;;;20.92;42.22;101547.75;5006365;28;51050;-53
2021/10/17 05:15:08;;;;;;;;;6.75;4.75;;;;;20.92;42.42;101541.41;5007721;28;50987;-53
2021/10/17 05:17:34;;;;;;;;;8.50;5.75;;;;;20.91;42.38;101548.81;5006298;28;51346;-53
2021/10/17 05:19:59;;;;;;;;;5.00;5.00;;;;;20.92;42.19;101546.91;4995922;28;51151;-55
2021/10/17 05:22:24;;;;;;;;;7.25;6.00;;;;;20.91;42.40;101557.06;4996253;28;51015;-55
2021/10/17 05:24:49;;;;;;;;;5.25;5.25;;;;;20.91;42.14;101545.22;5001500;28;51190;-56
2021/10/17 05:27:15;;;;;;;;;4.00;4.00;;;;;20.91;42.37;101547.97;4999063;28;50965;-56
2021/10/17 05:29:40;;;;;;;;;5.25;5.25;;;;;20.91;42.08;101553.47;5007559;28;51114;-55
2021/10/17 05:32:06;;;;;;;;;6.00;6.00;;;;;20.91;42.37;101550.72;5011983;28;51123;-56
2021/10/17 05:34:31;;;;;;;;;4.75;4.75;;;;;20.90;42.20;101560.03;4978121;28;51393;-57
2021/10/17 05:36:56;;;;;;;;;4.25;3.50;;;;;20.90;42.07;101560.88;5014827;28;50891;-56
2021/10/17 05:39:22;;;;;;;;;5.00;4.25;;;;;20.91;42.61;101556.22;5001178;28;51705;-55
2021/10/17 05:41:47;;;;;;;;;5.25;5.00;;;;;20.89;42.63;101558.34;5012721;28;51098;-54
2021/10/17 05:44:12;;;;;;;;;5.25;3.50;;;;;20.90;42.64;101560.03;4996282;28;51020;-56
2021/10/17 05:46:38;;;;;;;;;7.50;7.25;;;;;20.88;42.29;101557.50;4978221;28;51306;-56
2021/10/17 05:49:03;;;;;;;;;6.50;6.00;;;;;20.88;42.34;101563.00;4997311;28;51150;-56
2021/10/17 05:51:28;;;;;;;;;6.25;5.50;;;;;20.88;42.46;101567.66;4995542;28;51000;-55
2021/10/17 05:53:54;;;;;;;;;5.75;5.00;;;;;20.88;42.25;101568.50;5008804;28;50944;-56
2021/10/17 05:56:19;;;;;;;;;5.00;5.00;;;;;20.88;42.64;101568.50;5004444;28;51430;-55
2021/10/17 05:58:44;;;;;;;;;6.25;5.50;;;;;20.88;42.71;101571.25;5011878;28;51814;-55
2021/10/17 06:01:10;;;;;;;;;4.50;4.50;;;;;20.87;42.45;101568.72;4997261;28;51509;-56
2021/10/17 06:03:35;;;;;;;;;5.00;4.50;;;;;20.86;42.37;101569.78;4995304;28;51208;-58
2021/10/17 06:06:03;;;;;;;;;7.00;6.00;;;;;20.86;42.45;101562.38;4995723;28;51151;-58
2021/10/17 06:08:30;;;;;;;;;7.25;5.50;;;;;20.86;42.51;101564.28;4997787;28;52775;-58
2021/10/17 06:10:56;;;;;;;;;5.50;5.50;;;;;20.85;42.47;101574.44;4996284;28;51244;-58
2021/10/17 06:13:21;;;;;;;;;7.75;5.50;;;;;20.85;42.66;101573.59;4995577;28;51106;-56
2021/10/17 06:15:47;;;;;;;;;7.00;5.00;;;;;20.85;42.45;101574.44;4995652;28;50976;-58
2021/10/17 06:18:12;;;;;;;;;8.00;6.00;;;;;20.84;42.33;101572.75;4998794;28;51078;-56
2021/10/17 06:20:38;;;;;;;;;5.00;4.00;;;;;20.84;42.44;101575.50;5006189;28;50940;-57
2021/10/17 06:23:03;;;;;;;;;4.00;4.00;;;;;20.84;42.61;101582.88;5003433;28;51250;-55
2021/10/17 06:25:28;;;;;;;;;10.00;6.00;;;;;20.84;42.51;101581.00;4997129;28;51190;-56
2021/10/17 06:27:55;;;;;;;;;5.25;5.25;;;;;20.85;42.53;101579.09;4997644;28;50902;-56
2021/10/17 06:30:21;;;;;;;;;6.25;5.00;;;;;20.85;42.30;101585.47;5010129;28;51232;-57
2021/10/17 06:32:46;;;;;;;;;6.75;6.75;;;;;20.85;42.36;101592.88;5014318;28;51020;-56
2021/10/17 06:35:13;;;;;;;;;5.75;4.25;;;;;20.83;42.30;101593.06;4996043;28;50943;-55
2021/10/17 06:37:39;;;;;;;;;5.00;5.00;;;;;20.82;42.53;101596.88;4994640;28;52027;-52
2021/10/17 06:40:05;;;;;;;;;5.25;4.50;;;;;20.83;42.16;101600.47;5006915;28;51052;-52
2021/10/17 06:42:30;;;;;;;;;5.50;5.00;;;;;20.82;42.61;101602.38;5001281;28;51199;-49
2021/10/17 06:44:56;;;;;;;;;6.25;4.75;;;;;20.82;42.43;101610.63;5003700;28;51187;-55
2021/10/17 06:47:21;;;;;;;;;8.25;7.50;;;;;20.81;42.56;101621.84;4994589;28;51070;-52
2021/10/17 06:49:46;;;;;;;;;9.25;7.25;;;;;20.80;42.19;101623.75;5009103;28;51162;-53
2021/10/17 06:52:12;;;;;;;;;10.25;9.00;;;;;20.79;41.32;101635.00;4999887;28;52107;-54
2021/10/17 06:54:37;;;;;;;;;11.00;10.50;;;;;20.75;41.03;101629.91;5009170;28;51052;-51
2021/10/17 06:57:02;;;;;;;;;17.00;17.00;;;;;20.70;40.23;101637.91;4997717;28;51787;-53
2021/10/17 06:59:28;;;;;;;;;15.00;13.50;;;;;20.65;39.92;101640.44;5012578;28;51130;-53
2021/10/17 07:01:53;;;;;;;;;13.00;10.75;;;;;20.61;40.57;101628.13;5008135;28;51102;-56
2021/10/17 07:04:18;;;;;;;;;12.00;11.00;;;;;20.61;40.76;101628.13;5015624;28;50965;-54
2021/10/17 07:06:44;;;;;;;;;13.25;10.00;;;;;20.65;40.36;101636.84;4997943;28;51916;-55
2021/10/17 07:09:10;;;;;;;;;12.50;8.50;;;;;20.72;40.89;101635.78;5005400;28;51192;-55
2021/10/17 07:11:36;;;;;;;;;10.00;8.25;;;;;20.80;40.67;101628.44;5009597;28;51376;-54
2021/10/17 07:14:01;;;;;;;;;7.50;7.50;;;;;20.89;40.32;101628.03;4998044;28;51154;-56
2021/10/17 07:16:27;;;;;;;;;7.00;5.50;;;;;20.99;40.94;101635.91;4997431;28;52019;-53
2021/10/17 07:18:52;;;;;;;;;5.00;5.00;;;;;21.08;40.79;101628.31;5008522;28;51174;-55
2021/10/17 07:21:17;;;;;;;;;5.25;4.25;;;;;21.16;40.55;101622.63;4997733;28;51771;-56
2021/10/17 07:23:43;;;;;;;;;7.75;7.00;;;;;21.24;40.76;101626.00;5007428;28;51204;-57
2021/10/17 07:26:08;;;;;;;;;6.75;6.00;;;;;21.33;40.34;101627.56;5010088;28;50994;-55
2021/10/17 07:28:34;;;;;;;;;7.00;5.75;;;;;21.41;40.68;101628.41;5012872;28;51209;-52
2021/10/17 07:30:59;;;;;;;;;5.00;5.00;;;;;21.48;40.43;101623.78;5015431;28;51478;-51
2021/10/17 07:33:25;;;;;;;;;8.25;5.50;;;;;21.56;40.35;101623.53;5007558;28;51046;-53
2021/10/17 07:35:50;;;;;;;;;8.00;6.00;;;;;21.63;40.65;101620.81;4997264;28;52305;-52
2021/10/17 07:38:15;;;;;;;;;4.75;4.50;;;;;21.69;40.28;101626.34;5007364;28;51115;-52
2021/10/17 07:40:41;;;;;;;;;8.00;5.50;;;;;21.72;40.15;101631.41;5010245;28;51071;-53
2021/10/17 07:43:06;;;;;;;;;7.25;7.25;;;;;21.73;40.18;101633.13;5009977;28;52366;-56
2021/10/17 07:45:32;;;;;;;;;7.00;6.25;;;;;21.72;40.50;101638.84;4996980;28;51005;-53
2021/10/17 07:47:58;;;;;;;;;4.00;4.00;;;;;21.71;40.87;101635.25;5000304;28;51549;-54
2021/10/17 07:50:23;;;;;;;;;7.25;6.00;;;;;21.69;40.89;101633.75;4998240;28;50989;-54
2021/10/17 07:52:49;;;;;;;;;7.50;6.25;;;;;21.67;41.11;101635.84;5009101;28;51309;-54
2021/10/17 07:55:14;;;;;;;;;8.75;6.50;;;;;21.65;40.84;101633.31;4999849;28;52049;-54
2021/10/17 07:57:44;;;;;;;;;7.00;6.50;;;;;21.64;41.39;101636.28;5011163;28;51036;-53
2021/10/17 08:00:10;;;;;;;;;8.25;7.75;;;;;21.66;41.45;101637.75;5011768;28;51037;-52
2021/10/17 08:02:36;;;;;;;;;8.25;7.00;;;;;21.72;41.48;101638.84;5008371;28;51063;-56
2021/10/17 08:05:01;;;;;;;;;8.25;7.50;;;;;21.78;41.45;101637.97;4999781;28;51876;-53
2021/10/17 08:07:26;;;;;;;;;11.00;8.75;;;;;21.84;41.44;101638.00;5003057;28;51151;-56
2021/10/17 08:09:52;;;;;;;;;9.25;9.00;;;;;21.87;41.14;101639.47;5015656;28;51189;-54
2021/10/17 08:12:17;;;;;;;;;10.75;9.25;;;;;21.87;40.96;101644.97;5015885;28;51129;-55
2021/10/17 08:14:42;;;;;;;;;11.50;8.75;;;;;21.85;41.38;101645.19;5015238;28;50992;-52
2021/10/17 08:17:08;;;;;;;;;12.50;11.00;;;;;21.83;40.86;101636.28;5012262;28;50989;-55
2021/10/17 08:19:33;;;;;;;;;10.75;10.75;;;;;21.81;41.10;101643.94;4997070;28;51485;-55
2021/10/17 08:21:58;;;;;;;;;15.25;12.25;;;;;21.79;40.91;101647.97;5007431;28;51379;-56
2021/10/17 08:24:24;;;;;;;;;14.50;13.75;;;;;21.76;40.90;101648.38;5005390;28;51145;-56
2021/10/17 08:26:49;;;;;;;;;11.00;10.50;;;;;21.74;40.69;101647.75;5000362;28;51141;-53
2021/10/17 08:29:15;;;;;;;;;15.50;12.00;;;;;21.71;40.88;101646.28;5008900;28;51094;-53
2021/10/17 08:31:40;;;;;;;;;13.00;11.75;;;;;21.69;40.74;101647.56;5015058;28;51353;-52
2021/10/17 08:34:05;;;;;;;;;15.75;12.50;;;;;21.66;40.83;101643.28;5015368;28;52001;-53
2021/10/17 08:36:31;;;;;;;;;14.25;14.25;;;;;21.65;41.05;101636.06;5009615;28;51108;-53
2021/10/17 08:38:56;;;;;;;;;19.25;16.00;;;;;21.64;40.77;101633.53;4996053;28;51596;-56
2021/10/17 08:41:22;;;;;;;;;13.00;11.50;;;;;21.62;40.58;101625.47;5013395;28;51391;-54
2021/10/17 08:43:47;;;;;;;;;13.00;12.50;;;;;21.61;40.58;101632.91;5015328;28;51089;-53
2021/10/17 08:46:13;;;;;;;;;12.50;12.00;;;;;21.60;40.48;101630.34;5012448;28;51106;-54
2021/10/17 08:48:38;;;;;;;;;13.00;12.00;;;;;21.58;40.66;101630.56;5001718;28;51156;-53
2021/10/17 08:51:06;;;;;;;;;17.00;13.25;;;;;21.58;40.54;101624.22;5010681;28;51125;-56
2021/10/17 08:53:32;;;;;;;;;14.50;10.50;;;;;21.58;40.86;101629.72;4997782;28;51985;-56
2021/10/17 08:55:57;;;;;;;;;13.50;11.50;;;;;21.59;40.64;101629.50;5011895;28;51020;-54
2021/10/17 08:58:23;;;;;;;;;11.25;10.25;;;;;21.60;40.65;101627.59;5007529;28;51172;-56
2021/10/17 09:00:48;;;;;;;;;13.00;11.25;;;;;21.61;41.03;101626.53;4999986;28;51063;-53
2021/10/17 09:03:13;;;;;;;;;12.25;10.75;;;;;21.62;41.14;101628.22;4995443;28;51802;-55
2021/10/17 09:05:43;;;;;;;;;14.00;7.75;;;;;21.62;40.64;101628.22;4999336;28;51164;-54
2021/10/17 09:08:15;;;;;;;;;13.75;13.75;;;;;21.62;40.58;101631.00;5014806;28;51140;-56
2021/10/17 09:10:40;;;;;;;;;13.00;10.50;;;;;21.61;40.94;101621.88;5010112;28;50951;-55
2021/10/17 09:13:07;;;;;;;;;13.50;12.00;;;;;21.61;40.78;101627.38;4996322;28;51097;-55
2021/10/17 09:15:33;;;;;;;;;18.50;13.50;;;;;21.62;40.92;101631.00;4996237;28;51048;-54
2021/10/17 09:18:07;;;;;;;;;15.50;12.00;;;;;21.63;41.09;101631.84;4995456;28;51169;-57
2021/10/17 09:20:35;;;;;;;;;12.25;12.25;;;;;21.63;40.68;101632.69;4998183;28;51160;-55
2021/10/17 09:23:05;;;;;;;;;14.25;12.25;;;;;21.64;40.93;101626.09;5012613;28;51143;-54
2021/10/17 09:25:35;;;;;;;;;16.75;13.75;;;;;21.65;40.85;101622.28;4999229;28;50975;-55
2021/10/17 09:28:01;;;;;;;;;16.50;12.75;;;;;21.68;40.37;101626.56;4997248;28;51123;-55
2021/10/17 09:30:27;;;;;;;;;12.75;12.00;;;;;21.70;40.25;101627.19;4995769;28;51069;-55
2021/10/17 09:33:09;;;;;;;;;13.50;11.00;;;;;21.71;40.44;101623.38;4996046;28;51214;-54
2021/10/17 09:35:35;;;;;;;;;12.75;10.00;;;;;21.72;40.21;101625.06;5002072;28;51132;-53
2021/10/17 09:38:01;;;;;;;;;16.25;13.25;;;;;21.73;40.39;101622.09;4994851;28;51031;-55
2021/10/17 09:40:28;;;;;;;;;11.25;10.75;;;;;21.75;40.45;101619.97;4977635;28;51112;-55
2021/10/17 09:43:28;;;;;;;;;14.00;11.75;;;;;21.77;39.77;101616.97;4998212;28;51856;-55
2021/10/17 09:46:08;;;;;;;;;12.75;9.75;;;;;21.78;40.19;101616.78;5013688;28;51446;-56
2021/10/17 09:48:33;;;;;;;;;13.50;11.75;;;;;21.77;39.64;101615.06;5014131;28;51065;-56
2021/10/17 09:51:05;;;;;;;;;17.50;12.25;;;;;21.79;39.97;101612.13;5011824;28;51098;-55
2021/10/17 09:53:50;;;;;;;;;16.25;11.25;;;;;21.80;40.00;101606.41;5004979;28;52031;-55
2021/10/17 09:56:33;;;;;;;;;26.50;21.75;;;;;21.81;39.64;101602.56;5005967;28;50993;-55
2021/10/17 09:59:04;;;;;;;;;32.25;28.00;;;;;21.82;40.26;101603.41;4994994;28;51070;-55
2021/10/17 10:01:30;;;;;;;;;40.25;30.25;;;;;21.82;39.82;101601.50;4995941;28;51137;-56
2021/10/17 10:03:58;;;;;;;;;37.75;29.50;;;;;21.83;39.96;101605.97;5011768;28;52233;-54
2021/10/17 10:06:25;;;;;;;;;38.25;30.75;;;;;21.84;40.66;101606.81;5002827;28;51031;-55
2021/10/17 10:08:55;;;;;;;;;31.50;24.25;;;;;21.85;40.65;101612.09;5002512;28;51267;-53
2021/10/17 10:11:23;;;;;;;;;31.50;26.25;;;;;21.86;40.14;101611.03;5012036;28;50990;-55
2021/10/17 10:13:55;;;;;;;;;30.00;23.00;;;;;21.84;40.06;101613.16;4994717;28;51797;-56
2021/10/17 10:16:23;;;;;;;;;28.75;21.25;;;;;21.85;40.63;101614.88;4994055;28;51133;-54
2021/10/17 10:18:56;;;;;;;;;25.50;20.25;;;;;21.86;40.48;101613.78;5009123;28;51082;-54
2021/10/17 10:21:22;;;;;;;;;22.00;20.00;;;;;21.85;40.72;101606.59;5000535;28;51155;-54
2021/10/17 10:23:50;;;;;;;;;31.50;20.25;;;;;21.85;40.01;101603.81;5009766;28;51793;-54
2021/10/17 10:26:16;;;;;;;;;21.75;17.25;;;;;21.87;40.16;101606.38;5000220;28;51111;-53
2021/10/17 10:28:42;;;;;;;;;19.75;17.50;;;;;21.87;40.55;101614.66;5017052;28;51082;-55
2021/10/17 10:31:07;;;;;;;;;20.50;15.00;;;;;21.88;40.37;101611.69;5014101;28;51284;-55
2021/10/17 10:33:44;;;;;;;;;25.25;16.25;;;;;21.88;40.46;101608.94;5006671;28;51661;-55
2021/10/17 10:36:15;;;;;;;;;20.75;18.25;;;;;21.89;40.82;101612.53;4997194;28;51357;-54
2021/10/17 10:38:53;;;;;;;;;18.25;14.50;;;;;21.87;40.41;101606.38;5006235;28;51149;-55
2021/10/17 10:41:18;;;;;;;;;20.75;16.25;;;;;21.86;40.92;101601.91;5004148;28;50975;-54
2021/10/17 10:43:43;;;;;;;;;19.25;16.50;;;;;21.85;40.73;101603.81;4997344;28;51016;-55
2021/10/17 10:46:10;;;;;;;;;15.50;13.75;;;;;21.85;41.04;101614.88;5013816;28;50957;-55
2021/10/17 10:48:46;;;;;;;;;18.75;13.75;;;;;21.84;40.72;101606.81;5014391;28;51205;-55
2021/10/17 10:51:11;;;;;;;;;18.75;15.25;;;;;21.83;41.01;101596.84;5014932;28;51420;-55
2021/10/17 10:53:51;;;;;;;;;14.50;11.75;;;;;21.82;41.10;101604.25;4996447;28;52151;-55
2021/10/17 10:56:41;;;;;;;;;16.00;15.00;;;;;21.81;41.52;101599.81;4997237;28;51332;-53
2021/10/17 10:59:08;;;;;;;;;15.75;14.00;;;;;21.81;41.96;101608.09;4999279;28;51082;-52
2021/10/17 11:01:51;;;;;;;;;20.50;13.25;;;;;21.81;42.13;101597.06;5003038;28;51593;-54
2021/10/17 11:04:42;;;;;;;;;15.25;9.75;;;;;21.82;41.90;101598.75;5015824;28;51024;-56
2021/10/17 11:07:20;;;;;;;;;14.25;11.50;;;;;21.83;42.37;101591.31;5015382;28;51420;-55
2021/10/17 11:09:46;;;;;;;;;12.75;10.75;;;;;21.83;42.67;101591.31;5007487;28;51133;-53
2021/10/17 11:12:41;;;;;;;;;21.50;14.50;;;;;21.85;42.27;101597.47;5011057;28;51211;-54
2021/10/17 11:15:12;;;;;;;;;14.00;11.00;;;;;21.86;42.69;101600.00;5009348;28;51885;-54
2021/10/17 11:17:38;;;;;;;;;16.00;11.50;;;;;21.87;42.58;101595.34;4991009;28;51421;-54